Time;durP1;ratioP1;P1;durP2;ratioP2;P2;SDS_P1;SDS_P2;PMS_P1;PMS_P2;Temp;Humidity;BMP_temperature;BMP_pressure;BME280_temperature;BME280_humidity;BME280_pressure;Samples;Min_cycle;Max_cycle;Signal;HPM_P1;HPM_P2
2022/07/30 00:00:15;;;;;;;7.93;4.28;;;;;;;18.63;63.38;100339.19;5113178;28;20028;-79
2022/07/30 00:02:41;;;;;;;12.35;3.22;;;;;;;18.54;63.64;100336.75;5113048;28;20038;-79
2022/07/30 00:05:06;;;;;;;5.93;3.33;;;;;;;18.47;63.73;100335.88;5111736;28;20044;-80
2022/07/30 00:07:32;;;;;;;9.52;4.93;;;;;;;18.47;63.99;100335.88;5111777;28;20028;-80
2022/07/30 00:09:57;;;;;;;8.45;3.10;;;;;;;18.55;63.77;100332.03;5113099;28;20046;-79
2022/07/30 00:12:22;;;;;;;;;;;;;;;18.41;64.21;100331.91;5113447;28;20477;-79
2022/07/30 00:14:48;;;;;;;5.93;3.50;;;;;;;18.38;64.02;100338.19;5112885;28;20331;-79
2022/07/30 00:17:13;;;;;;;;;;;;;;;18.38;64.51;100332.69;5113371;28;20261;-79
2022/07/30 00:19:38;;;;;;;11.10;5.13;;;;;;;18.34;64.52;100336.22;5112900;28;19915;-79
2022/07/30 00:22:04;;;;;;;;;;;;;;;18.80;63.63;100333.00;5113076;28;20076;-79
2022/07/30 00:24:29;;;;;;;10.93;3.57;;;;;;;18.98;62.74;100332.31;5112893;28;20342;-80
2022/07/30 00:26:54;;;;;;;11.52;4.38;;;;;;;18.78;63.51;100324.31;5113021;28;20486;-79
2022/07/30 00:29:19;;;;;;;;;;;;;;;18.63;64.10;100323.44;5113323;28;20032;-80
2022/07/30 00:31:45;;;;;;;6.37;3.00;;;;;;;18.55;64.49;100323.75;5112947;28;20335;-79
2022/07/30 00:34:11;;;;;;;;;;;;;;;18.50;64.97;100332.41;5114407;28;20289;-80
2022/07/30 00:36:38;;;;;;;7.15;3.47;;;;;;;18.41;65.23;100324.44;5116359;28;19918;-79
2022/07/30 00:39:03;;;;;;;7.60;3.65;;;;;;;18.22;66.34;100328.22;5116272;28;20475;-79
2022/07/30 00:41:28;;;;;;;7.50;3.30;;;;;;;18.16;66.52;100335.28;5116452;28;20042;-79
2022/07/30 00:43:54;;;;;;;;;;;;;;;18.19;66.75;100331.75;5116601;28;20090;-79
2022/07/30 00:46:19;;;;;;;5.97;2.50;;;;;;;18.14;66.48;100332.13;5116163;28;20388;-80
2022/07/30 00:48:45;;;;;;;10.85;4.35;;;;;;;18.10;66.66;100336.00;5116028;28;20428;-79
2022/07/30 00:51:10;;;;;;;;;;;;;;;18.00;66.42;100330.00;5116739;28;20031;-79
2022/07/30 00:53:36;;;;;;;7.38;4.00;;;;;;;17.98;67.11;100335.13;5116381;28;20006;-79
2022/07/30 00:56:02;;;;;;;;;;;;;;;17.92;67.68;100331.09;5115450;28;20031;-79
2022/07/30 00:58:27;;;;;;;8.57;5.00;;;;;;;17.84;67.61;100323.16;5116397;28;20243;-79
2022/07/30 01:00:52;;;;;;;;;;;;;;;17.78;68.09;100322.69;5116321;28;20027;-79
2022/07/30 01:03:18;;;;;;;9.55;5.00;;;;;;;17.71;68.27;100317.91;5115930;28;19957;-80
2022/07/30 01:05:44;;;;;;;;;;;;;;;17.69;68.64;100320.25;5116220;28;20047;-79
2022/07/30 01:08:09;;;;;;;7.65;3.75;;;;;;;17.66;68.75;100323.75;5116232;28;20309;-80
2022/07/30 01:10:34;;;;;;;;;;;;;;;17.63;69.12;100327.22;5116980;28;20058;-80
2022/07/30 01:13:00;;;;;;;7.85;4.55;;;;;;;17.57;69.02;100325.19;5114685;28;19923;-80
2022/07/30 01:15:26;;;;;;;;;;;;;;;17.54;69.04;100324.00;5115118;28;20034;-79
2022/07/30 01:17:53;;;;;;;6.45;3.90;;;;;;;17.46;69.01;100322.31;5114333;28;19915;-79
2022/07/30 01:20:42;;;;;;;8.32;3.83;;;;;;;17.37;69.56;100319.88;5115651;28;20031;-80
2022/07/30 01:23:16;;;;;;;9.05;4.82;;;;;;;17.36;69.85;100323.00;5115932;28;20035;-80
2022/07/30 01:25:54;;;;;;;9.10;4.55;;;;;;;17.28;70.07;100315.81;5115565;28;20032;-81
2022/07/30 01:28:24;;;;;;;8.55;4.15;;;;;;;17.21;70.03;100313.78;5114175;28;20039;-80
2022/07/30 01:30:52;;;;;;;5.35;3.05;;;;;;;17.29;69.57;100323.69;5097359;28;20456;-80
2022/07/30 01:33:24;;;;;;;7.00;3.70;;;;;;;17.21;70.36;100318.50;5097379;28;20474;-80
2022/07/30 01:35:54;;;;;;;6.18;3.40;;;;;;;17.10;70.06;100315.59;5115364;28;20035;-81
2022/07/30 01:38:23;;;;;;;8.35;3.50;;;;;;;17.16;69.97;100319.63;5097392;28;20496;-80
2022/07/30 01:40:53;;;;;;;7.05;3.55;;;;;;;17.17;70.31;100320.41;5114793;28;20023;-79
2022/07/30 01:43:21;;;;;;;7.95;3.70;;;;;;;17.16;70.18;100322.38;5097054;28;20308;-79
2022/07/30 01:45:49;;;;;;;6.45;3.15;;;;;;;17.11;70.08;100317.19;5096368;28;20102;-79
2022/07/30 01:48:17;;;;;;;6.82;3.30;;;;;;;17.05;70.11;100324.97;5115079;28;20497;-79
2022/07/30 01:50:45;;;;;;;7.63;4.28;;;;;;;17.06;70.50;100318.31;5096690;28;20362;-79
2022/07/30 01:53:15;;;;;;;7.15;3.60;;;;;;;17.02;70.50;100327.69;5096305;28;20115;-79
2022/07/30 01:55:42;;;;;;;6.53;3.58;;;;;;;17.04;70.24;100328.91;5115004;28;20030;-79
2022/07/30 01:58:10;;;;;;;7.85;3.45;;;;;;;17.05;70.02;100330.47;5115299;28;20031;-78
2022/07/30 02:00:41;;;;;;;7.70;3.10;;;;;;;16.98;70.88;100322.16;5115036;28;20088;-78
2022/07/30 02:03:08;;;;;;;5.78;3.10;;;;;;;16.99;70.77;100325.69;5114863;28;20074;-78
2022/07/30 02:05:35;;;;;;;4.70;2.65;;;;;;;17.20;70.33;100325.97;5114873;28;20047;-78
2022/07/30 02:08:06;;;;;;;6.85;2.50;;;;;;;17.65;68.82;100333.19;5114475;28;20028;-79
2022/07/30 02:10:56;;;;;;;6.28;3.03;;;;;;;17.42;69.24;100338.78;5114613;28;20036;-78
2022/07/30 02:13:25;;;;;;;5.72;2.50;;;;;;;17.52;69.49;100348.38;5096283;28;20035;-78
2022/07/30 02:16:04;;;;;;;8.00;3.35;;;;;;;17.45;69.30;100340.78;5114752;28;20115;-78
2022/07/30 02:18:37;;;;;;;5.43;2.55;;;;;;;17.26;70.58;100340.16;5114691;28;20433;-79
2022/07/30 02:21:05;;;;;;;6.38;2.97;;;;;;;17.25;70.36;100339.38;5114570;28;20028;-79
2022/07/30 02:23:35;;;;;;;9.55;2.63;;;;;;;17.22;70.52;100344.84;5096411;28;20489;-79
2022/07/30 02:26:02;;;;;;;6.00;2.63;;;;;;;17.22;70.86;100337.38;5114784;28;20031;-79
2022/07/30 02:28:31;;;;;;;5.57;3.20;;;;;;;16.90;72.12;100344.41;5096252;28;20351;-79
2022/07/30 02:31:00;;;;;;;7.30;3.25;;;;;;;16.47;74.23;100350.06;5114465;28;20059;-79
2022/07/30 02:33:29;;;;;;;6.22;3.45;;;;;;;16.40;74.50;100349.91;5096110;28;20060;-79
2022/07/30 02:35:57;;;;;;;5.95;3.47;;;;;;;16.15;76.26;100351.47;5114135;28;20036;-79
2022/07/30 02:38:25;;;;;;;8.18;3.97;;;;;;;16.45;75.16;100348.81;5114343;28;20467;-79
2022/07/30 02:40:53;;;;;;;8.43;3.63;;;;;;;16.24;76.20;100358.28;5114143;28;20024;-79
2022/07/30 02:43:20;;;;;;;8.88;3.70;;;;;;;16.07;77.31;100355.25;5114221;28;20041;-79
2022/07/30 02:45:47;;;;;;;7.35;4.00;;;;;;;16.08;77.48;100354.06;5114091;28;20032;-79
2022/07/30 02:48:15;;;;;;;8.45;4.50;;;;;;;16.05;77.71;100349.31;5113988;28;20032;-79
2022/07/30 02:50:42;;;;;;;6.25;3.58;;;;;;;16.02;78.22;100353.59;5114023;28;20031;-79
2022/07/30 02:53:11;;;;;;;6.60;3.45;;;;;;;16.01;78.19;100349.25;5113803;28;20039;-80
2022/07/30 02:55:39;;;;;;;7.57;3.85;;;;;;;16.28;76.98;100358.34;5114044;28;20036;-79
2022/07/30 02:58:06;;;;;;;8.25;3.80;;;;;;;16.10;78.17;100354.50;5113561;28;20027;-83
2022/07/30 03:00:33;;;;;;;6.88;3.83;;;;;;;16.11;78.05;100356.09;5114147;28;20030;-82
2022/07/30 03:03:00;;;;;;;7.28;4.07;;;;;;;16.30;77.48;100358.81;5114008;28;20451;-83
2022/07/30 03:05:26;;;;;;;8.65;4.45;;;;;;;16.10;78.42;100354.50;5095727;28;20030;-83
2022/07/30 03:07:53;;;;;;;9.20;4.63;;;;;;;15.93;79.67;100361.25;5114060;28;20035;-84
2022/07/30 03:10:19;;;;;;;9.43;4.70;;;;;;;15.84;79.98;100350.53;5095415;28;20490;-83
2022/07/30 03:12:48;;;;;;;6.07;3.53;;;;;;;15.84;80.20;100353.28;5113558;28;20109;-83
2022/07/30 03:15:14;;;;;;;7.95;4.28;;;;;;;15.93;79.70;100355.78;5096177;28;20039;-83
2022/07/30 03:17:45;;;;;;;8.07;4.40;;;;;;;15.91;79.91;100360.84;5113459;28;20394;-83
2022/07/30 03:20:16;;;;;;;7.60;4.47;;;;;;;15.84;80.14;100356.03;5114166;28;20042;-84
2022/07/30 03:22:46;;;;;;;8.23;4.50;;;;;;;15.85;80.15;100360.34;5116493;28;20470;-83
2022/07/30 03:25:14;;;;;;;8.18;4.32;;;;;;;15.82;80.62;100357.56;5115073;28;20038;-83
2022/07/30 03:27:41;;;;;;;7.68;3.80;;;;;;;16.09;79.28;100367.44;5113969;28;20179;-83
2022/07/30 03:30:08;;;;;;;9.85;4.10;;;;;;;16.01;79.38;100362.22;5113754;28;20031;-83
2022/07/30 03:32:35;;;;;;;9.13;3.72;;;;;;;16.18;78.70;100373.50;5113846;28;20497;-83
2022/07/30 03:35:01;;;;;;;6.88;3.25;;;;;;;16.62;76.88;100367.53;5095479;28;20028;-82
2022/07/30 03:37:27;;;;;;;;;;;;;;;16.31;77.90;100373.31;5113854;28;20085;-83
2022/07/30 03:39:52;;;;;;;8.35;4.40;;;;;;;16.14;78.94;100377.34;5113197;28;19961;-84
2022/07/30 03:42:18;;;;;;;;;;;;;;;16.41;77.65;100373.50;5113647;28;20042;-83
2022/07/30 03:44:44;;;;;;;7.85;4.05;;;;;;;16.62;77.16;100367.53;5113540;28;19959;-82
2022/07/30 03:47:10;;;;;;;;;;;;;;;16.51;76.90;100372.88;5095853;28;20034;-82
2022/07/30 03:49:35;;;;;;;7.78;3.97;;;;;;;16.39;77.33;100377.78;5113176;28;19907;-83
2022/07/30 03:52:03;;;;;;;8.48;4.30;;;;;;;16.46;77.04;100367.69;5113336;28;20119;-84
2022/07/30 03:54:32;;;;;;;9.73;4.38;;;;;;;16.06;79.55;100373.69;5113571;28;20470;-84
2022/07/30 03:56:59;;;;;;;7.50;4.07;;;;;;;15.91;80.24;100372.63;5113196;28;20023;-81
2022/07/30 03:59:25;;;;;;;7.82;4.35;;;;;;;15.75;81.28;100371.91;5113041;28;20098;-83
2022/07/30 04:01:51;;;;;;;8.57;4.95;;;;;;;15.71;81.75;100375.75;5113018;28;20135;-81
2022/07/30 04:04:16;;;;;;;9.43;4.80;;;;;;;15.64;82.21;100379.16;5112883;28;20433;-82
2022/07/30 04:06:41;;;;;;;;;;;;;;;16.26;79.61;100382.66;5113463;28;20063;-80
2022/07/30 04:09:11;;;;;;;10.93;4.97;;;;;;;16.29;79.39;100386.63;5114299;28;19908;-83
2022/07/30 04:11:37;;;;;;;8.05;4.00;;;;;;;16.10;79.55;100384.72;5117149;28;20039;-82
2022/07/30 04:14:02;;;;;;;8.85;4.72;;;;;;;16.08;79.29;100384.28;5117421;28;20031;-81
2022/07/30 04:16:36;;;;;;;10.82;5.47;;;;;;;15.60;82.78;100384.56;5116879;28;20383;-82
2022/07/30 04:19:07;;;;;;;10.57;4.97;;;;;;;15.60;82.77;100389.25;5116827;28;20519;-81
2022/07/30 04:21:36;;;;;;;8.18;4.53;;;;;;;15.59;82.77;100393.97;5117172;28;20081;-82
2022/07/30 04:24:02;;;;;;;8.65;4.93;;;;;;;15.54;83.55;100404.41;5116803;28;20458;-81
2022/07/30 04:26:31;;;;;;;10.93;5.68;;;;;;;15.37;85.05;100396.59;5116765;28;20494;-82
2022/07/30 04:28:58;;;;;;;9.07;5.18;;;;;;;15.54;84.15;100394.22;5116386;28;20096;-81
2022/07/30 04:31:25;;;;;;;9.02;5.10;;;;;;;15.67;83.62;100405.88;5116630;28;20032;-80
2022/07/30 04:33:50;;;;;;;10.07;5.40;;;;;;;15.56;84.22;100399.34;5116391;28;20169;-82
2022/07/30 04:36:15;;;;;;;11.05;6.13;;;;;;;15.79;83.02;100408.50;5116083;28;20467;-79
2022/07/30 04:38:41;;;;;;;;;;;;;;;15.71;83.56;100411.44;5116616;28;20039;-79
2022/07/30 04:41:06;;;;;;;11.90;5.20;;;;;;;16.02;82.07;100410.47;5098107;28;19915;-79
2022/07/30 04:43:32;;;;;;;8.90;4.70;;;;;;;16.18;81.24;100413.91;5116207;28;20273;-79
2022/07/30 04:45:57;;;;;;;;;;;;;;;15.91;83.03;100422.03;5116429;28;20118;-78
2022/07/30 04:48:25;;;;;;;8.43;5.03;;;;;;;15.81;84.09;100422.66;5116125;28;19951;-80
2022/07/30 04:50:54;;;;;;;12.75;6.30;;;;;;;15.62;86.32;100419.91;5116326;28;20729;-80
2022/07/30 04:53:19;;;;;;;11.55;6.20;;;;;;;15.64;86.00;100417.59;5116165;28;20474;-79
2022/07/30 04:55:50;;;;;;;14.52;7.35;;;;;;;15.56;87.61;100421.31;5116198;28;20023;-80
2022/07/30 04:58:18;;;;;;;12.50;6.43;;;;;;;15.60;87.19;100431.22;5115885;28;20040;-79
2022/07/30 05:00:44;;;;;;;14.57;6.60;;;;;;;15.73;86.73;100434.63;5115796;28;20043;-79
2022/07/30 05:03:11;;;;;;;12.65;7.07;;;;;;;15.61;87.90;100432.03;5115917;28;20028;-80
2022/07/30 05:05:38;;;;;;;13.80;7.15;;;;;;;15.60;88.02;100435.91;5115766;28;20414;-80
2022/07/30 05:08:04;;;;;;;14.23;7.60;;;;;;;15.49;88.50;100430.19;5097330;28;20111;-80
2022/07/30 05:10:29;;;;;;;17.17;7.28;;;;;;;15.76;87.30;100439.41;5116080;28;20059;-80
2022/07/30 05:12:55;;;;;;;16.88;8.05;;;;;;;15.84;86.31;100443.09;5097035;28;20426;-79
2022/07/30 05:15:20;;;;;;;;;;;;;;;15.74;86.12;100441.72;5116359;28;20028;-80
2022/07/30 05:17:46;;;;;;;11.50;5.75;;;;;;;16.06;84.20;100439.59;5115627;27;20404;-79
2022/07/30 05:20:11;;;;;;;;;;;;;;;15.93;84.51;100436.19;5114912;28;20118;-80
2022/07/30 05:22:36;;;;;;;16.33;7.15;;;;;;;15.82;85.72;100442.66;5115385;28;19984;-80
2022/07/30 05:25:02;;;;;;;;;;;;;;;15.80;86.08;100447.72;5115882;28;20042;-79
2022/07/30 05:27:28;;;;;;;12.40;6.35;;;;;;;15.90;85.77;100449.88;5115417;28;20034;-80
2022/07/30 05:29:53;;;;;;;;;;;;;;;16.10;84.39;100450.63;5097572;28;20027;-80
2022/07/30 05:32:18;;;;;;;15.27;7.10;;;;;;;15.87;86.47;100447.84;5115296;28;19926;-80
2022/07/30 05:34:43;;;;;;;;;;;;;;;15.92;85.47;100445.59;5097543;28;20051;-80
2022/07/30 05:37:09;;;;;;;15.10;7.23;;;;;;;15.95;86.01;100444.88;5097260;28;20326;-80
2022/07/30 05:39:34;;;;;;;;;;;;;;;16.17;84.51;100459.81;5115573;28;20505;-78
2022/07/30 05:41:59;;;;;;;16.73;7.17;;;;;;;15.83;86.69;100464.25;5115072;28;19966;-78
2022/07/30 05:44:24;;;;;;;;;;;;;;;15.70;88.39;100465.56;5115217;28;20604;-78
2022/07/30 05:46:50;;;;;;;21.73;8.38;;;;;;;16.06;86.06;100467.06;5114933;28;20322;-79
2022/07/30 05:49:16;;;;;;;;;;;;;;;16.00;86.52;100468.53;5115676;28;20118;-79
2022/07/30 05:51:41;;;;;;;18.75;8.25;;;;;;;16.01;86.97;100458.31;5114767;28;19907;-79
2022/07/30 05:54:07;;;;;;;;;;;;;;;16.13;85.99;100466.41;5115488;28;20038;-79
2022/07/30 05:56:32;;;;;;;19.83;8.50;;;;;;;16.48;83.92;100466.28;5114933;28;20350;-79
2022/07/30 05:58:57;;;;;;;;;;;;;;;16.63;82.94;100473.63;5115354;28;20031;-78
2022/07/30 06:01:23;;;;;;;17.58;9.30;;;;;;;16.34;84.43;100472.31;5114838;28;19915;-78
2022/07/30 06:03:48;;;;;;;;;;;;;;;16.02;85.96;100468.94;5114873;28;20030;-78
2022/07/30 06:06:13;;;;;;;21.03;9.23;;;;;;;16.30;84.65;100474.19;5096322;28;20014;-78
2022/07/30 06:08:38;;;;;;;21.83;9.77;;;;;;;16.40;84.27;100470.84;5114849;28;20285;-78
2022/07/30 06:11:04;;;;;;;;;;;;;;;16.37;83.80;100473.53;5114877;28;20743;-78
2022/07/30 06:13:29;;;;;;;22.40;9.07;;;;;;;16.53;82.83;100469.50;5114160;28;19911;-79
2022/07/30 06:15:54;;;;;;;;;;;;;;;16.53;83.22;100476.97;5114946;28;20253;-79
2022/07/30 06:18:20;;;;;;;17.47;8.97;;;;;;;16.55;82.98;100482.88;5114138;28;19915;-80
2022/07/30 06:20:45;;;;;;;;;;;;;;;16.59;82.72;100485.69;5114745;28;20032;-79
2022/07/30 06:23:11;;;;;;;21.58;9.77;;;;;;;16.80;82.24;100477.84;5114412;28;19919;-80
2022/07/30 06:25:36;;;;;;;;;;;;;;;16.70;82.63;100479.25;5114914;28;20035;-76
2022/07/30 06:28:01;;;;;;;39.87;12.53;;;;;;;16.41;84.33;100494.41;5114316;28;19976;-75
2022/07/30 06:30:28;;;;;;;;;;;;;;;16.43;84.55;100485.78;5114429;28;20273;-75
2022/07/30 06:32:53;;;;;;;25.13;12.57;;;;;;;16.34;84.91;100491.53;5114256;28;20044;-76
2022/07/30 06:35:19;;;;;;;;;;;;;;;16.39;84.62;100496.72;5114413;28;20122;-76
2022/07/30 06:37:44;;;;;;;22.58;10.48;;;;;;;16.86;81.85;100498.38;5113984;28;19916;-76
2022/07/30 06:40:10;;;;;;;;;;;;;;;16.43;84.79;100500.34;5114518;28;20097;-75
2022/07/30 06:42:35;;;;;;;31.27;14.63;;;;;;;16.35;85.77;100509.63;5113611;28;19919;-75
2022/07/30 06:45:00;;;;;;;;;;;;;;;16.24;85.72;100505.88;5114157;28;20485;-75
2022/07/30 06:47:27;;;;;;;40.03;16.03;;;;;;;16.17;86.06;100512.03;5114287;28;20016;-76
2022/07/30 06:49:56;;;;;;;46.05;17.52;;;;;;;16.10;86.35;100511.06;5113367;28;20027;-76
2022/07/30 06:52:22;;;;;;;49.70;18.90;;;;;;;16.08;86.43;100510.66;5113555;28;20474;-76
2022/07/30 06:54:48;;;;;;;48.63;18.02;;;;;;;16.13;86.11;100507.63;5113828;28;20028;-75
2022/07/30 06:57:14;;;;;;;53.65;19.88;;;;;;;16.06;86.16;100516.50;5113542;28;20385;-76
2022/07/30 06:59:39;;;;;;;;;;;;;;;15.94;87.18;100509.19;5114425;28;20040;-76
2022/07/30 07:02:04;;;;;;;51.60;18.93;;;;;;;16.22;85.75;100505.44;5113510;28;19912;-76
2022/07/30 07:04:31;;;;;;;;;;;;;;;16.15;86.39;100516.28;5114009;28;20268;-76
2022/07/30 07:06:57;;;;;;;60.20;18.75;;;;;;;15.98;86.48;100516.72;5113569;28;19911;-76
2022/07/30 07:09:22;;;;;;;49.85;19.85;;;;;;;16.10;85.73;100520.09;5113493;28;20031;-76
2022/07/30 07:11:47;;;;;;;;;;;;;;;16.37;84.04;100521.03;5113923;28;20044;-77
2022/07/30 07:14:15;;;;;;;52.00;17.42;;;;;;;16.48;83.93;100526.75;5095154;28;19911;-78
2022/07/30 07:16:40;;;;;;;45.53;18.20;;;;;;;16.54;83.72;100528.81;5113600;28;20038;-78
2022/07/30 07:19:06;;;;;;;;;;;;;;;16.15;84.90;100530.03;5094871;28;20043;-77
2022/07/30 07:21:31;;;;;;;45.20;17.80;;;;;;;16.32;83.58;100524.09;5095088;28;19911;-77
2022/07/30 07:23:59;;;;;;;;;;;;;;;16.14;84.26;100531.19;5113912;28;20290;-77
2022/07/30 07:26:27;;;;;;;;;;;;;;;16.22;83.82;100536.44;5113821;28;19908;-76
2022/07/30 07:28:53;;;;;;;49.90;18.70;;;;;;;16.03;84.58;100528.22;5113318;28;19918;-76
2022/07/30 07:31:18;;;;;;;;;;;;;;;16.24;83.54;100538.84;5113885;28;20114;-76
2022/07/30 07:33:45;;;;;;;47.17;17.95;;;;;;;16.64;82.04;100537.63;5113366;28;20354;-76
2022/07/30 07:36:11;;;;;;;45.45;16.02;;;;;;;16.67;81.24;100534.97;5095084;28;20170;-76
2022/07/30 07:38:36;;;;;;;;;;;;;;;16.83;81.36;100534.88;5113657;28;20118;-75
2022/07/30 07:41:02;;;;;;;42.70;15.75;;;;;;;16.97;80.51;100529.63;5113125;28;20010;-75
2022/07/30 07:43:29;;;;;;;;;;;;;;;16.54;81.37;100534.31;5113054;28;20031;-76
2022/07/30 07:45:54;;;;;;;35.40;15.23;;;;;;;16.44;81.67;100534.09;5113269;28;19911;-76
2022/07/30 07:48:19;;;;;;;;;;;;;;;16.92;80.06;100532.66;5113764;28;20043;-76
2022/07/30 07:50:45;;;;;;;36.77;15.03;;;;;;;16.73;80.51;100532.72;5112908;28;19931;-76
2022/07/30 07:53:11;;;;;;;;;;;;;;;17.03;79.29;100536.38;5113503;28;20391;-75
2022/07/30 07:55:37;;;;;;;33.35;13.80;;;;;;;16.81;79.72;100531.69;5112692;28;20278;-76
2022/07/30 07:58:02;;;;;;;;;;;;;;;16.95;78.99;100540.16;5113076;28;20030;-76
2022/07/30 08:00:27;;;;;;;27.27;12.90;;;;;;;17.42;77.01;100537.00;5094836;28;19911;-77
2022/07/30 08:02:53;;;;;;;;;;;;;;;17.63;76.63;100530.19;5113589;28;20046;-78
2022/07/30 08:05:18;;;;;;;27.80;12.52;;;;;;;17.66;76.11;100527.50;5112934;28;20006;-78
2022/07/30 08:07:44;;;;;;;;;;;;;;;17.55;76.99;100529.31;5095181;28;20123;-78
2022/07/30 08:10:12;;;;;;;26.65;12.88;;;;;;;17.73;75.62;100524.88;5112905;28;19954;-77
2022/07/30 08:12:38;;;;;;;34.45;14.82;;;;;;;17.96;74.78;100523.97;5094665;28;20425;-78
2022/07/30 08:15:04;;;;;;;32.20;15.00;;;;;;;18.13;73.96;100528.91;5112847;28;20093;-75
2022/07/30 08:17:29;;;;;;;;;;;;;;;18.12;73.76;100527.31;5112929;28;20424;-76
2022/07/30 08:20:04;;;;;;;29.95;14.73;;;;;;;18.33;73.26;100521.28;5112847;28;19998;-78
2022/07/30 08:22:29;;;;;;;31.90;14.80;;;;;;;18.63;72.49;100527.53;5094420;28;20481;-76
2022/07/30 08:24:55;;;;;;;29.13;14.75;;;;;;;18.43;72.47;100531.63;5112826;28;20031;-76
2022/07/30 08:27:20;;;;;;;;;;;;;;;18.63;70.77;100529.47;5112686;28;20016;-75
2022/07/30 08:29:45;;;;;;;28.37;14.47;;;;;;;18.93;70.06;100524.66;5112742;28;19911;-76
2022/07/30 08:32:11;;;;;;;26.45;12.48;;;;;;;18.93;70.15;100526.63;5112508;28;20031;-75
2022/07/30 08:34:36;;;;;;;;;;;;;;;18.99;69.42;100521.56;5113340;28;20065;-75
2022/07/30 08:37:01;;;;;;;24.80;12.37;;;;;;;19.14;69.03;100524.03;5094242;28;20343;-76
2022/07/30 08:39:27;;;;;;;26.05;13.40;;;;;;;18.88;70.04;100516.72;5094289;28;20047;-75
2022/07/30 08:41:52;;;;;;;;;;;;;;;19.20;69.60;100521.72;5113004;28;20027;-76
2022/07/30 08:44:20;;;;;;;24.17;11.82;;;;;;;19.11;69.82;100519.28;5112288;28;19912;-77
2022/07/30 08:46:47;;;;;;;19.60;10.82;;;;;;;19.36;68.78;100529.72;5112631;28;20035;-77
2022/07/30 08:49:13;;;;;;;20.23;9.82;;;;;;;19.59;67.32;100523.97;5112261;28;20028;-76
2022/07/30 08:51:39;;;;;;;16.88;8.90;;;;;;;19.75;67.10;100519.72;5112619;28;20119;-76
2022/07/30 08:54:05;;;;;;;16.27;9.23;;;;;;;19.78;66.10;100529.19;5112704;28;20431;-76
2022/07/30 08:56:31;;;;;;;16.83;9.45;;;;;;;19.78;66.70;100529.19;5113994;28;20032;-76
2022/07/30 08:59:01;;;;;;;15.45;8.25;;;;;;;19.76;66.90;100537.09;5116231;28;20070;-77
2022/07/30 09:01:26;;;;;;;13.82;7.75;;;;;;;19.88;67.02;100536.75;5116154;28;20031;-76
2022/07/30 09:03:52;;;;;;;11.75;5.90;;;;;;;20.06;64.81;100545.91;5115766;28;20068;-76
2022/07/30 09:06:17;;;;;;;11.57;5.85;;;;;;;20.07;64.46;100528.16;5115727;28;20481;-77
2022/07/30 09:08:43;;;;;;;11.07;5.38;;;;;;;20.20;64.80;100536.91;5115634;28;20396;-77
2022/07/30 09:11:09;;;;;;;11.98;7.00;;;;;;;20.00;65.47;100536.44;5115673;28;20084;-76
2022/07/30 09:13:36;;;;;;;12.95;7.18;;;;;;;20.22;65.48;100526.25;5115653;28;20126;-76
2022/07/30 09:16:04;;;;;;;10.90;5.82;;;;;;;20.09;64.82;100539.63;5097317;28;20459;-75
2022/07/30 09:18:38;;;;;;;9.02;4.93;;;;;;;20.26;63.72;100534.53;5115445;28;20483;-77
2022/07/30 09:21:24;;;;;;;9.50;5.05;;;;;;;20.51;63.38;100537.41;5115696;28;20035;-76
2022/07/30 09:24:00;;;;;;;7.55;4.82;;;;;;;20.33;63.07;100524.31;5115305;28;20057;-75
2022/07/30 09:26:26;;;;;;;10.65;4.95;;;;;;;20.46;63.04;100523.94;5115464;28;20128;-75
2022/07/30 09:28:52;;;;;;;8.00;4.28;;;;;;;20.57;62.67;100525.56;5115413;28;20106;-75
2022/07/30 09:31:18;;;;;;;7.60;4.22;;;;;;;20.76;62.64;100531.91;5115146;28;20042;-75
2022/07/30 09:33:45;;;;;;;8.07;4.40;;;;;;;21.02;61.24;100526.00;5115476;28;20110;-76
2022/07/30 09:36:13;;;;;;;9.15;4.18;;;;;;;21.07;60.79;100525.59;5115275;28;20034;-76
2022/07/30 09:38:44;;;;;;;7.70;4.20;;;;;;;20.81;61.64;100524.00;5115051;28;20027;-75
2022/07/30 09:41:10;;;;;;;6.90;3.92;;;;;;;20.88;60.33;100528.78;5114849;28;20485;-75
2022/07/30 09:43:47;;;;;;;7.25;4.32;;;;;;;20.84;60.71;100527.97;5115021;28;20031;-77
2022/07/30 09:46:13;;;;;;;7.78;4.07;;;;;;;20.77;61.73;100523.22;5115220;28;20069;-76
2022/07/30 09:48:39;;;;;;;6.10;3.38;;;;;;;21.10;60.97;100519.28;5096741;28;20032;-76
2022/07/30 09:51:05;;;;;;;6.70;3.95;;;;;;;20.78;61.19;100513.72;5096987;28;20410;-74
2022/07/30 09:53:33;;;;;;;7.82;4.20;;;;;;;20.79;61.23;100520.06;5115023;28;20098;-75
2022/07/30 09:55:59;;;;;;;7.20;3.42;;;;;;;20.87;60.47;100521.66;5115123;28;20031;-75
2022/07/30 09:58:37;;;;;;;6.93;2.80;;;;;;;21.02;58.09;100520.47;5096726;28;20135;-76
2022/07/30 10:01:06;;;;;;;5.30;3.17;;;;;;;21.10;57.91;100526.78;5096804;28;20024;-74
2022/07/30 10:03:31;;;;;;;6.75;3.25;;;;;;;21.40;57.59;100529.16;5114654;28;20031;-76
2022/07/30 10:06:18;;;;;;;7.80;3.75;;;;;;;21.31;57.93;100524.81;5114080;28;20028;-76
2022/07/30 10:08:45;;;;;;;7.25;3.75;;;;;;;21.39;58.14;100530.34;5096629;28;20042;-76
2022/07/30 10:11:14;;;;;;;15.18;3.97;;;;;;;21.36;57.11;100525.63;5114463;28;20040;-75
2022/07/30 10:13:40;;;;;;;5.95;2.78;;;;;;;21.37;57.50;100524.44;5114345;28;20520;-74
2022/07/30 10:16:06;;;;;;;7.07;2.97;;;;;;;21.40;57.97;100526.41;5114257;28;20035;-76
2022/07/30 10:18:35;;;;;;;7.90;3.25;;;;;;;21.22;58.83;100529.16;5114465;28;20052;-76
2022/07/30 10:21:05;;;;;;;5.53;2.85;;;;;;;21.10;59.35;100529.56;5114055;28;20031;-76
2022/07/30 10:23:34;;;;;;;6.25;3.20;;;;;;;21.22;57.78;100527.19;5114513;28;20027;-75
2022/07/30 10:25:59;;;;;;;6.18;3.47;;;;;;;21.53;57.17;100524.78;5113978;28;20031;-75
2022/07/30 10:28:26;;;;;;;7.82;3.17;;;;;;;21.52;56.32;100523.22;5098420;28;20554;-75
2022/07/30 10:30:52;;;;;;;6.88;3.10;;;;;;;21.80;55.07;100525.09;5096005;28;20027;-76
2022/07/30 10:33:24;;;;;;;5.78;2.75;;;;;;;21.80;54.81;100536.97;5095868;28;20084;-75
2022/07/30 10:35:49;;;;;;;4.65;2.60;;;;;;;21.90;53.42;100527.84;5095648;28;20063;-76
2022/07/30 10:38:17;;;;;;;7.35;2.58;;;;;;;21.76;52.49;100527.91;5113917;28;20066;-75
2022/07/30 10:41:18;;;;;;;4.28;2.33;;;;;;;22.01;52.10;100527.81;5114183;28;20076;-76
2022/07/30 10:44:18;;;;;;;5.93;2.60;;;;;;;21.99;52.92;100523.84;5073712;28;20051;-76
2022/07/30 10:47:03;;;;;;;6.32;2.53;;;;;;;22.04;53.09;100531.75;5114450;28;20065;-77
2022/07/30 10:49:29;;;;;;;6.20;2.30;;;;;;;22.13;52.27;100523.81;5114204;28;20031;-76
2022/07/30 10:51:55;;;;;;;5.50;2.40;;;;;;;21.99;52.44;100530.19;5113881;28;20118;-76
2022/07/30 10:54:32;;;;;;;4.90;2.33;;;;;;;21.93;51.90;100534.56;5114091;28;20102;-76
2022/07/30 10:57:16;;;;;;;6.00;2.03;;;;;;;22.30;49.85;100522.16;5096053;28;20347;-75
2022/07/30 10:59:48;;;;;;;5.90;2.50;;;;;;;22.21;48.19;100525.38;5113832;28;20035;-74
2022/07/30 11:02:14;;;;;;;4.13;1.80;;;;;;;22.32;48.72;100520.53;5095462;28;20027;-74
2022/07/30 11:04:39;;;;;;;6.05;2.08;;;;;;;22.72;48.94;100518.34;5113626;28;20054;-76
2022/07/30 11:07:22;;;;;;;3.85;1.80;;;;;;;22.63;49.64;100518.78;5113639;28;20089;-75
2022/07/30 11:09:50;;;;;;;4.90;1.95;;;;;;;22.39;47.59;100506.66;5113653;28;20462;-75
2022/07/30 11:12:41;;;;;;;5.30;2.00;;;;;;;22.07;47.88;100511.56;5113111;28;20035;-75
2022/07/30 11:15:14;;;;;;;3.60;1.63;;;;;;;22.38;47.72;100507.06;5113516;28;20089;-75
2022/07/30 11:18:05;;;;;;;5.43;1.75;;;;;;;22.88;46.25;100498.41;5095076;28;20492;-74
2022/07/30 11:20:36;;;;;;;3.42;1.50;;;;;;;22.52;45.99;100507.75;5112961;28;20187;-75
2022/07/30 11:23:25;;;;;;;6.45;1.90;;;;;;;22.26;45.81;100508.31;5112991;28;20031;-74
2022/07/30 11:25:50;;;;;;;5.30;1.73;;;;;;;22.23;45.93;100503.56;5097325;28;20047;-74
2022/07/30 11:28:42;;;;;;;4.00;1.30;;;;;;;22.69;45.17;100499.72;5113184;28;20112;-75
2022/07/30 11:31:34;;;;;;;3.00;1.40;;;;;;;22.85;44.46;100510.34;5095140;28;20031;-75
2022/07/30 11:34:18;;;;;;;3.40;1.50;;;;;;;22.90;44.60;100507.91;5094418;28;20028;-75
2022/07/30 11:37:02;;;;;;;3.60;1.30;;;;;;;22.82;41.37;100498.03;5113275;28;20027;-75